sensor_id;sensor_type;location;lat;lon;timestamp;P1;durP1;ratioP1;P2;durP2;ratioP2
43098;SDS011;28715;51.988;6.020;2023-04-25T00:00:35;15.73;;;2.47;;
43098;SDS011;28715;51.988;6.020;2023-04-25T00:03:00;8.67;;;2.43;;
43098;SDS011;28715;51.988;6.020;2023-04-25T00:05:26;8.93;;;2.30;;
43098;SDS011;28715;51.988;6.020;2023-04-25T00:07:52;9.30;;;2.33;;
43098;SDS011;28715;51.988;6.020;2023-04-25T00:10:18;7.03;;;1.80;;
43098;SDS011;28715;51.988;6.020;2023-04-25T00:12:45;8.45;;;2.45;;
43098;SDS011;28715;51.988;6.020;2023-04-25T00:15:11;6.77;;;2.60;;
43098;SDS011;28715;51.988;6.020;2023-04-25T00:17:37;9.00;;;2.28;;
43098;SDS011;28715;51.988;6.020;2023-04-25T00:20:03;19.98;;;3.10;;
43098;SDS011;28715;51.988;6.020;2023-04-25T00:22:38;13.52;;;2.92;;
43098;SDS011;28715;51.988;6.020;2023-04-25T00:25:04;7.40;;;2.70;;
43098;SDS011;28715;51.988;6.020;2023-04-25T00:27:31;8.13;;;2.35;;
43098;SDS011;28715;51.988;6.020;2023-04-25T00:29:57;6.85;;;2.28;;
43098;SDS011;28715;51.988;6.020;2023-04-25T00:32:22;5.93;;;2.67;;
43098;SDS011;28715;51.988;6.020;2023-04-25T00:34:48;13.80;;;3.10;;
43098;SDS011;28715;51.988;6.020;2023-04-25T00:37:13;7.37;;;2.50;;
43098;SDS011;28715;51.988;6.020;2023-04-25T00:39:39;6.93;;;2.37;;
43098;SDS011;28715;51.988;6.020;2023-04-25T00:42:05;3.93;;;1.80;;
43098;SDS011;28715;51.988;6.020;2023-04-25T00:44:31;7.15;;;2.00;;
43098;SDS011;28715;51.988;6.020;2023-04-25T00:46:57;6.67;;;2.67;;
43098;SDS011;28715;51.988;6.020;2023-04-25T00:49:23;6.63;;;2.27;;
43098;SDS011;28715;51.988;6.020;2023-04-25T00:51:48;8.87;;;2.30;;
43098;SDS011;28715;51.988;6.020;2023-04-25T00:54:14;12.77;;;2.83;;
43098;SDS011;28715;51.988;6.020;2023-04-25T00:56:41;8.50;;;2.30;;
43098;SDS011;28715;51.988;6.020;2023-04-25T00:59:07;14.93;;;3.00;;
43098;SDS011;28715;51.988;6.020;2023-04-25T01:01:34;8.68;;;2.58;;
43098;SDS011;28715;51.988;6.020;2023-04-25T01:04:00;8.17;;;2.73;;
43098;SDS011;28715;51.988;6.020;2023-04-25T01:06:26;8.43;;;2.53;;
43098;SDS011;28715;51.988;6.020;2023-04-25T01:08:53;10.68;;;2.67;;
43098;SDS011;28715;51.988;6.020;2023-04-25T01:11:19;13.85;;;2.85;;
43098;SDS011;28715;51.988;6.020;2023-04-25T01:13:45;13.17;;;2.50;;
43098;SDS011;28715;51.988;6.020;2023-04-25T01:16:10;11.20;;;3.00;;
43098;SDS011;28715;51.988;6.020;2023-04-25T01:18:37;10.00;;;2.50;;
43098;SDS011;28715;51.988;6.020;2023-04-25T01:21:09;6.75;;;2.42;;
43098;SDS011;28715;51.988;6.020;2023-04-25T01:23:45;10.25;;;3.15;;
43098;SDS011;28715;51.988;6.020;2023-04-25T01:26:11;9.23;;;2.92;;
43098;SDS011;28715;51.988;6.020;2023-04-25T01:28:38;12.32;;;2.92;;
43098;SDS011;28715;51.988;6.020;2023-04-25T01:31:07;8.60;;;3.05;;
43098;SDS011;28715;51.988;6.020;2023-04-25T01:33:33;6.85;;;2.83;;
43098;SDS011;28715;51.988;6.020;2023-04-25T01:35:59;12.27;;;2.80;;
43098;SDS011;28715;51.988;6.020;2023-04-25T01:38:25;13.80;;;2.33;;
43098;SDS011;28715;51.988;6.020;2023-04-25T01:40:50;7.87;;;1.93;;
43098;SDS011;28715;51.988;6.020;2023-04-25T01:43:17;9.57;;;2.63;;
43098;SDS011;28715;51.988;6.020;2023-04-25T01:45:43;10.67;;;3.13;;
43098;SDS011;28715;51.988;6.020;2023-04-25T01:48:09;7.17;;;2.50;;
43098;SDS011;28715;51.988;6.020;2023-04-25T01:50:36;14.23;;;4.25;;
43098;SDS011;28715;51.988;6.020;2023-04-25T01:53:03;8.95;;;2.83;;
43098;SDS011;28715;51.988;6.020;2023-04-25T01:55:29;8.35;;;2.72;;
43098;SDS011;28715;51.988;6.020;2023-04-25T01:57:55;12.90;;;3.00;;
43098;SDS011;28715;51.988;6.020;2023-04-25T02:00:20;8.63;;;2.87;;
43098;SDS011;28715;51.988;6.020;2023-04-25T02:02:47;6.22;;;1.90;;
43098;SDS011;28715;51.988;6.020;2023-04-25T02:05:13;14.68;;;3.40;;
43098;SDS011;28715;51.988;6.020;2023-04-25T02:07:38;9.73;;;2.33;;
43098;SDS011;28715;51.988;6.020;2023-04-25T02:10:04;11.10;;;3.03;;
43098;SDS011;28715;51.988;6.020;2023-04-25T02:12:30;5.80;;;2.17;;
43098;SDS011;28715;51.988;6.020;2023-04-25T02:14:56;8.93;;;3.03;;
43098;SDS011;28715;51.988;6.020;2023-04-25T02:17:22;8.13;;;3.10;;
43098;SDS011;28715;51.988;6.020;2023-04-25T02:19:48;7.23;;;2.93;;
43098;SDS011;28715;51.988;6.020;2023-04-25T02:22:13;7.37;;;3.10;;
43098;SDS011;28715;51.988;6.020;2023-04-25T02:24:39;10.97;;;3.23;;
43098;SDS011;28715;51.988;6.020;2023-04-25T02:27:05;7.27;;;3.67;;
43098;SDS011;28715;51.988;6.020;2023-04-25T02:29:31;9.20;;;2.53;;
43098;SDS011;28715;51.988;6.020;2023-04-25T02:31:56;9.77;;;2.57;;
43098;SDS011;28715;51.988;6.020;2023-04-25T02:34:22;3.97;;;1.50;;
43098;SDS011;28715;51.988;6.020;2023-04-25T02:36:48;14.87;;;2.50;;
43098;SDS011;28715;51.988;6.020;2023-04-25T02:39:17;5.32;;;2.50;;
43098;SDS011;28715;51.988;6.020;2023-04-25T02:41:42;6.83;;;2.27;;
43098;SDS011;28715;51.988;6.020;2023-04-25T02:44:08;5.47;;;2.40;;
43098;SDS011;28715;51.988;6.020;2023-04-25T02:46:33;5.33;;;2.33;;
43098;SDS011;28715;51.988;6.020;2023-04-25T02:48:59;6.83;;;2.20;;
43098;SDS011;28715;51.988;6.020;2023-04-25T02:51:25;4.87;;;1.97;;
43098;SDS011;28715;51.988;6.020;2023-04-25T02:53:51;5.07;;;2.28;;
43098;SDS011;28715;51.988;6.020;2023-04-25T02:56:17;8.17;;;2.57;;
43098;SDS011;28715;51.988;6.020;2023-04-25T02:58:42;9.77;;;2.63;;
43098;SDS011;28715;51.988;6.020;2023-04-25T03:01:08;7.90;;;3.33;;
43098;SDS011;28715;51.988;6.020;2023-04-25T03:03:33;7.07;;;2.73;;
43098;SDS011;28715;51.988;6.020;2023-04-25T03:05:59;10.87;;;2.90;;
43098;SDS011;28715;51.988;6.020;2023-04-25T03:08:25;8.60;;;2.37;;
43098;SDS011;28715;51.988;6.020;2023-04-25T03:10:54;4.90;;;1.77;;
43098;SDS011;28715;51.988;6.020;2023-04-25T03:13:20;8.05;;;3.15;;
43098;SDS011;28715;51.988;6.020;2023-04-25T03:15:46;5.10;;;2.13;;
43098;SDS011;28715;51.988;6.020;2023-04-25T03:18:11;5.23;;;1.80;;
43098;SDS011;28715;51.988;6.020;2023-04-25T03:20:37;10.23;;;2.00;;
43098;SDS011;28715;51.988;6.020;2023-04-25T03:23:04;10.63;;;2.35;;
43098;SDS011;28715;51.988;6.020;2023-04-25T03:25:30;8.90;;;2.63;;
43098;SDS011;28715;51.988;6.020;2023-04-25T03:27:56;7.55;;;2.45;;
43098;SDS011;28715;51.988;6.020;2023-04-25T03:30:23;4.95;;;2.05;;
43098;SDS011;28715;51.988;6.020;2023-04-25T03:32:48;12.27;;;2.37;;
43098;SDS011;28715;51.988;6.020;2023-04-25T03:35:14;10.70;;;2.43;;
43098;SDS011;28715;51.988;6.020;2023-04-25T03:37:39;11.83;;;3.50;;
43098;SDS011;28715;51.988;6.020;2023-04-25T03:40:05;7.53;;;2.73;;
43098;SDS011;28715;51.988;6.020;2023-04-25T03:42:31;11.20;;;2.75;;
43098;SDS011;28715;51.988;6.020;2023-04-25T03:44:57;12.47;;;2.90;;
43098;SDS011;28715;51.988;6.020;2023-04-25T03:47:23;10.57;;;3.00;;
43098;SDS011;28715;51.988;6.020;2023-04-25T03:49:48;6.93;;;2.00;;
43098;SDS011;28715;51.988;6.020;2023-04-25T03:52:16;6.28;;;2.17;;
43098;SDS011;28715;51.988;6.020;2023-04-25T03:54:42;5.93;;;2.23;;
43098;SDS011;28715;51.988;6.020;2023-04-25T03:57:07;17.20;;;3.03;;
43098;SDS011;28715;51.988;6.020;2023-04-25T03:59:33;9.80;;;2.90;;
43098;SDS011;28715;51.988;6.020;2023-04-25T04:01:59;8.57;;;3.27;;
43098;SDS011;28715;51.988;6.020;2023-04-25T04:04:24;11.10;;;2.80;;
43098;SDS011;28715;51.988;6.020;2023-04-25T04:06:50;6.03;;;2.07;;
43098;SDS011;28715;51.988;6.020;2023-04-25T04:09:17;12.98;;;2.70;;
43098;SDS011;28715;51.988;6.020;2023-04-25T04:11:43;6.17;;;3.13;;
43098;SDS011;28715;51.988;6.020;2023-04-25T04:14:08;19.63;;;2.77;;
43098;SDS011;28715;51.988;6.020;2023-04-25T04:16:35;12.20;;;2.95;;
43098;SDS011;28715;51.988;6.020;2023-04-25T04:19:00;8.60;;;2.63;;
43098;SDS011;28715;51.988;6.020;2023-04-25T04:21:26;6.20;;;2.80;;
43098;SDS011;28715;51.988;6.020;2023-04-25T04:23:52;12.63;;;3.63;;
43098;SDS011;28715;51.988;6.020;2023-04-25T04:26:22;10.13;;;3.58;;
43098;SDS011;28715;51.988;6.020;2023-04-25T04:28:51;6.13;;;2.78;;
43098;SDS011;28715;51.988;6.020;2023-04-25T04:31:19;10.93;;;3.22;;
43098;SDS011;28715;51.988;6.020;2023-04-25T04:33:45;9.23;;;2.55;;
43098;SDS011;28715;51.988;6.020;2023-04-25T04:36:11;7.22;;;2.92;;
43098;SDS011;28715;51.988;6.020;2023-04-25T04:38:37;5.70;;;2.07;;
43098;SDS011;28715;51.988;6.020;2023-04-25T04:41:02;7.23;;;3.30;;
43098;SDS011;28715;51.988;6.020;2023-04-25T04:43:28;9.43;;;3.10;;
43098;SDS011;28715;51.988;6.020;2023-04-25T04:45:54;13.33;;;2.70;;
43098;SDS011;28715;51.988;6.020;2023-04-25T04:48:23;10.30;;;2.95;;
43098;SDS011;28715;51.988;6.020;2023-04-25T04:50:48;10.07;;;2.47;;
43098;SDS011;28715;51.988;6.020;2023-04-25T04:53:14;8.07;;;2.43;;
43098;SDS011;28715;51.988;6.020;2023-04-25T04:55:40;5.10;;;2.17;;
43098;SDS011;28715;51.988;6.020;2023-04-25T04:58:06;7.13;;;2.10;;
43098;SDS011;28715;51.988;6.020;2023-04-25T05:00:32;3.13;;;1.70;;
43098;SDS011;28715;51.988;6.020;2023-04-25T05:02:58;5.33;;;1.97;;
43098;SDS011;28715;51.988;6.020;2023-04-25T05:05:23;6.67;;;2.00;;
43098;SDS011;28715;51.988;6.020;2023-04-25T05:07:49;3.20;;;1.60;;
43098;SDS011;28715;51.988;6.020;2023-04-25T05:10:16;6.20;;;2.13;;
43098;SDS011;28715;51.988;6.020;2023-04-25T05:12:42;5.70;;;1.98;;
43098;SDS011;28715;51.988;6.020;2023-04-25T05:15:08;9.93;;;2.07;;
43098;SDS011;28715;51.988;6.020;2023-04-25T05:17:34;8.70;;;2.50;;
43098;SDS011;28715;51.988;6.020;2023-04-25T05:20:00;5.73;;;2.00;;
43098;SDS011;28715;51.988;6.020;2023-04-25T05:22:25;5.23;;;2.13;;
43098;SDS011;28715;51.988;6.020;2023-04-25T05:24:51;8.60;;;2.80;;
43098;SDS011;28715;51.988;6.020;2023-04-25T05:27:17;6.10;;;2.33;;
43098;SDS011;28715;51.988;6.020;2023-04-25T05:29:43;5.05;;;2.30;;
43098;SDS011;28715;51.988;6.020;2023-04-25T05:32:09;8.77;;;2.50;;
43098;SDS011;28715;51.988;6.020;2023-04-25T05:34:34;13.60;;;3.37;;
43098;SDS011;28715;51.988;6.020;2023-04-25T05:37:00;8.43;;;2.57;;
43098;SDS011;28715;51.988;6.020;2023-04-25T05:39:26;9.27;;;2.83;;
43098;SDS011;28715;51.988;6.020;2023-04-25T05:41:52;11.23;;;2.47;;
43098;SDS011;28715;51.988;6.020;2023-04-25T05:44:17;10.87;;;2.37;;
43098;SDS011;28715;51.988;6.020;2023-04-25T05:46:43;12.27;;;2.47;;
43098;SDS011;28715;51.988;6.020;2023-04-25T05:49:09;6.73;;;1.87;;
43098;SDS011;28715;51.988;6.020;2023-04-25T05:51:34;3.60;;;1.37;;
43098;SDS011;28715;51.988;6.020;2023-04-25T05:54:00;5.93;;;2.00;;
43098;SDS011;28715;51.988;6.020;2023-04-25T05:56:25;3.83;;;1.93;;
43098;SDS011;28715;51.988;6.020;2023-04-25T05:58:51;11.80;;;2.10;;
43098;SDS011;28715;51.988;6.020;2023-04-25T06:01:16;5.20;;;1.57;;
43098;SDS011;28715;51.988;6.020;2023-04-25T06:03:42;4.17;;;1.70;;
43098;SDS011;28715;51.988;6.020;2023-04-25T06:06:08;5.33;;;1.60;;
43098;SDS011;28715;51.988;6.020;2023-04-25T06:08:34;6.88;;;1.30;;
43098;SDS011;28715;51.988;6.020;2023-04-25T06:11:00;6.03;;;1.63;;
43098;SDS011;28715;51.988;6.020;2023-04-25T06:13:26;3.80;;;1.00;;
43098;SDS011;28715;51.988;6.020;2023-04-25T06:15:51;3.83;;;1.30;;
43098;SDS011;28715;51.988;6.020;2023-04-25T06:18:17;8.70;;;1.40;;
43098;SDS011;28715;51.988;6.020;2023-04-25T06:20:42;8.73;;;0.90;;
43098;SDS011;28715;51.988;6.020;2023-04-25T06:23:08;6.20;;;1.90;;
43098;SDS011;28715;51.988;6.020;2023-04-25T06:25:33;3.07;;;1.10;;
43098;SDS011;28715;51.988;6.020;2023-04-25T06:27:59;4.50;;;1.20;;
43098;SDS011;28715;51.988;6.020;2023-04-25T06:30:24;3.07;;;0.90;;
43098;SDS011;28715;51.988;6.020;2023-04-25T06:32:51;3.97;;;1.00;;
43098;SDS011;28715;51.988;6.020;2023-04-25T06:35:17;6.22;;;1.27;;
43098;SDS011;28715;51.988;6.020;2023-04-25T06:37:43;6.17;;;1.40;;
43098;SDS011;28715;51.988;6.020;2023-04-25T06:40:09;6.60;;;1.23;;
43098;SDS011;28715;51.988;6.020;2023-04-25T06:42:35;4.85;;;0.95;;
43098;SDS011;28715;51.988;6.020;2023-04-25T06:45:01;4.00;;;1.10;;
43098;SDS011;28715;51.988;6.020;2023-04-25T06:47:27;4.97;;;1.15;;
43098;SDS011;28715;51.988;6.020;2023-04-25T06:49:53;1.97;;;0.77;;
43098;SDS011;28715;51.988;6.020;2023-04-25T06:52:18;3.07;;;1.33;;
43098;SDS011;28715;51.988;6.020;2023-04-25T06:54:44;4.17;;;1.17;;
43098;SDS011;28715;51.988;6.020;2023-04-25T06:57:10;9.60;;;1.58;;
43098;SDS011;28715;51.988;6.020;2023-04-25T06:59:35;3.50;;;1.10;;
43098;SDS011;28715;51.988;6.020;2023-04-25T07:02:01;2.60;;;0.87;;
43098;SDS011;28715;51.988;6.020;2023-04-25T07:04:27;1.73;;;0.53;;
43098;SDS011;28715;51.988;6.020;2023-04-25T07:06:52;2.37;;;0.70;;
43098;SDS011;28715;51.988;6.020;2023-04-25T07:09:18;4.07;;;0.97;;
43098;SDS011;28715;51.988;6.020;2023-04-25T07:11:44;4.13;;;1.30;;
43098;SDS011;28715;51.988;6.020;2023-04-25T07:14:09;2.93;;;1.30;;
43098;SDS011;28715;51.988;6.020;2023-04-25T07:16:35;4.73;;;1.23;;
43098;SDS011;28715;51.988;6.020;2023-04-25T07:19:00;5.40;;;1.07;;
43098;SDS011;28715;51.988;6.020;2023-04-25T07:21:26;3.20;;;1.57;;
43098;SDS011;28715;51.988;6.020;2023-04-25T07:23:52;4.80;;;1.13;;
43098;SDS011;28715;51.988;6.020;2023-04-25T07:26:17;4.40;;;1.37;;
43098;SDS011;28715;51.988;6.020;2023-04-25T07:28:43;2.93;;;1.07;;
43098;SDS011;28715;51.988;6.020;2023-04-25T07:31:08;7.03;;;1.47;;
43098;SDS011;28715;51.988;6.020;2023-04-25T07:33:34;6.07;;;1.20;;
43098;SDS011;28715;51.988;6.020;2023-04-25T07:36:00;4.90;;;1.30;;
43098;SDS011;28715;51.988;6.020;2023-04-25T07:38:25;6.43;;;1.13;;
43098;SDS011;28715;51.988;6.020;2023-04-25T07:40:51;3.50;;;1.10;;
43098;SDS011;28715;51.988;6.020;2023-04-25T07:43:17;1.93;;;0.97;;
43098;SDS011;28715;51.988;6.020;2023-04-25T07:45:43;4.67;;;1.03;;
43098;SDS011;28715;51.988;6.020;2023-04-25T07:48:09;55.17;;;4.05;;
43098;SDS011;28715;51.988;6.020;2023-04-25T07:50:35;7.30;;;0.80;;
43098;SDS011;28715;51.988;6.020;2023-04-25T07:53:01;5.17;;;1.10;;
43098;SDS011;28715;51.988;6.020;2023-04-25T07:55:26;5.10;;;1.10;;
43098;SDS011;28715;51.988;6.020;2023-04-25T07:57:52;3.47;;;1.00;;
43098;SDS011;28715;51.988;6.020;2023-04-25T08:00:18;3.43;;;0.90;;
43098;SDS011;28715;51.988;6.020;2023-04-25T08:02:44;2.50;;;0.87;;
43098;SDS011;28715;51.988;6.020;2023-04-25T08:05:10;7.07;;;1.25;;
43098;SDS011;28715;51.988;6.020;2023-04-25T08:07:39;4.25;;;0.88;;
43098;SDS011;28715;51.988;6.020;2023-04-25T08:10:05;7.70;;;1.30;;
43098;SDS011;28715;51.988;6.020;2023-04-25T08:12:31;2.38;;;0.77;;
43098;SDS011;28715;51.988;6.020;2023-04-25T08:14:57;3.80;;;0.93;;
43098;SDS011;28715;51.988;6.020;2023-04-25T08:17:23;3.30;;;1.00;;
43098;SDS011;28715;51.988;6.020;2023-04-25T08:19:48;2.63;;;0.60;;
43098;SDS011;28715;51.988;6.020;2023-04-25T08:22:14;3.13;;;0.77;;
43098;SDS011;28715;51.988;6.020;2023-04-25T08:24:40;6.77;;;1.17;;
43098;SDS011;28715;51.988;6.020;2023-04-25T08:27:06;1.48;;;0.50;;
43098;SDS011;28715;51.988;6.020;2023-04-25T08:29:32;3.20;;;0.95;;
43098;SDS011;28715;51.988;6.020;2023-04-25T08:32:01;10.35;;;0.65;;
43098;SDS011;28715;51.988;6.020;2023-04-25T08:34:27;3.23;;;1.10;;
43098;SDS011;28715;51.988;6.020;2023-04-25T08:36:52;1.73;;;0.47;;
43098;SDS011;28715;51.988;6.020;2023-04-25T08:39:18;4.83;;;1.40;;
43098;SDS011;28715;51.988;6.020;2023-04-25T08:41:43;8.03;;;0.70;;
43098;SDS011;28715;51.988;6.020;2023-04-25T08:44:10;4.05;;;0.50;;
43098;SDS011;28715;51.988;6.020;2023-04-25T08:46:37;7.30;;;0.95;;
43098;SDS011;28715;51.988;6.020;2023-04-25T08:49:05;6.72;;;1.10;;
43098;SDS011;28715;51.988;6.020;2023-04-25T08:51:32;1.92;;;0.85;;
43098;SDS011;28715;51.988;6.020;2023-04-25T08:54:07;2.45;;;0.60;;
43098;SDS011;28715;51.988;6.020;2023-04-25T08:56:35;2.65;;;0.75;;
43098;SDS011;28715;51.988;6.020;2023-04-25T08:59:01;1.00;;;0.40;;
43098;SDS011;28715;51.988;6.020;2023-04-25T09:01:27;2.40;;;0.20;;
43098;SDS011;28715;51.988;6.020;2023-04-25T09:03:53;0.83;;;0.47;;
43098;SDS011;28715;51.988;6.020;2023-04-25T09:06:19;16.97;;;1.37;;
43098;SDS011;28715;51.988;6.020;2023-04-25T09:08:44;3.93;;;0.70;;
43098;SDS011;28715;51.988;6.020;2023-04-25T09:11:10;1.87;;;0.60;;
43098;SDS011;28715;51.988;6.020;2023-04-25T09:13:37;1.33;;;0.40;;
43098;SDS011;28715;51.988;6.020;2023-04-25T09:16:03;31.10;;;21.87;;
43098;SDS011;28715;51.988;6.020;2023-04-25T09:21:06;7.63;;;1.35;;
43098;SDS011;28715;51.988;6.020;2023-04-25T09:23:40;7.78;;;1.70;;
43098;SDS011;28715;51.988;6.020;2023-04-25T09:26:06;6.00;;;0.63;;
43098;SDS011;28715;51.988;6.020;2023-04-25T09:28:33;4.40;;;0.60;;
43098;SDS011;28715;51.988;6.020;2023-04-25T09:31:00;3.72;;;0.60;;
43098;SDS011;28715;51.988;6.020;2023-04-25T09:33:27;2.70;;;0.50;;
43098;SDS011;28715;51.988;6.020;2023-04-25T09:35:56;5.28;;;0.63;;
43098;SDS011;28715;51.988;6.020;2023-04-25T09:38:31;3.65;;;0.75;;
43098;SDS011;28715;51.988;6.020;2023-04-25T09:41:05;2.90;;;0.60;;
43098;SDS011;28715;51.988;6.020;2023-04-25T09:43:30;4.63;;;1.00;;
43098;SDS011;28715;51.988;6.020;2023-04-25T09:45:56;6.87;;;1.10;;
43098;SDS011;28715;51.988;6.020;2023-04-25T09:48:24;6.82;;;1.05;;
43098;SDS011;28715;51.988;6.020;2023-04-25T09:51:10;6.55;;;1.02;;
43098;SDS011;28715;51.988;6.020;2023-04-25T09:53:39;4.82;;;0.80;;
43098;SDS011;28715;51.988;6.020;2023-04-25T09:56:06;5.53;;;1.20;;
43098;SDS011;28715;51.988;6.020;2023-04-25T09:58:37;8.98;;;1.33;;
43098;SDS011;28715;51.988;6.020;2023-04-25T10:01:04;10.65;;;2.60;;
43098;SDS011;28715;51.988;6.020;2023-04-25T10:03:32;6.47;;;1.73;;
43098;SDS011;28715;51.988;6.020;2023-04-25T10:06:00;7.68;;;1.33;;
43098;SDS011;28715;51.988;6.020;2023-04-25T10:08:28;4.95;;;0.65;;
43098;SDS011;28715;51.988;6.020;2023-04-25T10:10:59;6.20;;;0.80;;
43098;SDS011;28715;51.988;6.020;2023-04-25T10:13:30;3.70;;;0.80;;
43098;SDS011;28715;51.988;6.020;2023-04-25T10:15:57;3.17;;;0.65;;
43098;SDS011;28715;51.988;6.020;2023-04-25T10:18:24;3.15;;;0.60;;
43098;SDS011;28715;51.988;6.020;2023-04-25T10:20:51;5.13;;;0.80;;
43098;SDS011;28715;51.988;6.020;2023-04-25T10:23:19;3.85;;;0.70;;
43098;SDS011;28715;51.988;6.020;2023-04-25T10:25:45;4.88;;;1.00;;
43098;SDS011;28715;51.988;6.020;2023-04-25T10:28:11;6.73;;;1.03;;
43098;SDS011;28715;51.988;6.020;2023-04-25T10:30:36;4.17;;;0.70;;
43098;SDS011;28715;51.988;6.020;2023-04-25T10:33:02;4.30;;;0.70;;
43098;SDS011;28715;51.988;6.020;2023-04-25T10:35:42;7.15;;;0.90;;
43098;SDS011;28715;51.988;6.020;2023-04-25T10:38:16;3.88;;;0.68;;
43098;SDS011;28715;51.988;6.020;2023-04-25T10:40:41;5.57;;;0.80;;
43098;SDS011;28715;51.988;6.020;2023-04-25T10:46:24;1.95;;;0.38;;
43098;SDS011;28715;51.988;6.020;2023-04-25T10:48:52;0.00;;;0.00;;
43098;SDS011;28715;51.988;6.020;2023-04-25T10:51:20;0.00;;;0.00;;
43098;SDS011;28715;51.988;6.020;2023-04-25T10:54:04;0.00;;;0.00;;
43098;SDS011;28715;51.988;6.020;2023-04-25T10:56:36;0.08;;;0.08;;
43098;SDS011;28715;51.988;6.020;2023-04-25T10:59:18;1.95;;;0.52;;
43098;SDS011;28715;51.988;6.020;2023-04-25T11:01:51;2.17;;;0.98;;
43098;SDS011;28715;51.988;6.020;2023-04-25T11:04:20;0.20;;;0.20;;
43098;SDS011;28715;51.988;6.020;2023-04-25T11:09:33;0.03;;;0.00;;
43098;SDS011;28715;51.988;6.020;2023-04-25T11:12:03;0.00;;;0.00;;
43098;SDS011;28715;51.988;6.020;2023-04-25T11:14:30;5.53;;;0.68;;
43098;SDS011;28715;51.988;6.020;2023-04-25T11:16:56;1999.90;;;999.90;;
43098;SDS011;28715;51.988;6.020;2023-04-25T11:19:23;4.50;;;0.50;;
43098;SDS011;28715;51.988;6.020;2023-04-25T11:21:49;3.03;;;0.40;;
43098;SDS011;28715;51.988;6.020;2023-04-25T11:24:18;3.70;;;0.73;;
43098;SDS011;28715;51.988;6.020;2023-04-25T11:26:46;4.60;;;0.50;;
43098;SDS011;28715;51.988;6.020;2023-04-25T11:29:12;5.40;;;0.75;;
43098;SDS011;28715;51.988;6.020;2023-04-25T11:31:38;2.33;;;0.60;;
43098;SDS011;28715;51.988;6.020;2023-04-25T11:34:03;5.93;;;1.37;;
43098;SDS011;28715;51.988;6.020;2023-04-25T11:36:29;5.67;;;0.87;;
43098;SDS011;28715;51.988;6.020;2023-04-25T11:38:56;4.32;;;0.68;;
43098;SDS011;28715;51.988;6.020;2023-04-25T11:41:22;6.37;;;1.17;;
43098;SDS011;28715;51.988;6.020;2023-04-25T11:43:47;3.90;;;0.63;;
43098;SDS011;28715;51.988;6.020;2023-04-25T11:46:15;3.63;;;0.75;;
43098;SDS011;28715;51.988;6.020;2023-04-25T11:48:41;5.57;;;0.80;;
43098;SDS011;28715;51.988;6.020;2023-04-25T11:51:07;3.47;;;0.60;;
43098;SDS011;28715;51.988;6.020;2023-04-25T11:53:33;4.35;;;0.80;;
43098;SDS011;28715;51.988;6.020;2023-04-25T11:56:00;2.70;;;0.60;;
43098;SDS011;28715;51.988;6.020;2023-04-25T11:58:26;4.93;;;0.77;;
43098;SDS011;28715;51.988;6.020;2023-04-25T12:00:52;4.67;;;0.77;;
43098;SDS011;28715;51.988;6.020;2023-04-25T12:03:18;3.93;;;0.73;;
43098;SDS011;28715;51.988;6.020;2023-04-25T12:05:44;3.70;;;0.60;;
43098;SDS011;28715;51.988;6.020;2023-04-25T12:08:12;4.40;;;0.88;;
43098;SDS011;28715;51.988;6.020;2023-04-25T12:10:38;5.13;;;0.82;;
43098;SDS011;28715;51.988;6.020;2023-04-25T12:13:21;5.63;;;0.88;;
43098;SDS011;28715;51.988;6.020;2023-04-25T12:15:48;429.85;;;26.52;;
43098;SDS011;28715;51.988;6.020;2023-04-25T12:18:14;3.57;;;0.30;;
43098;SDS011;28715;51.988;6.020;2023-04-25T12:20:41;1.03;;;0.20;;
43098;SDS011;28715;51.988;6.020;2023-04-25T12:23:06;1.40;;;0.30;;
43098;SDS011;28715;51.988;6.020;2023-04-25T12:25:39;1.40;;;0.30;;
43098;SDS011;28715;51.988;6.020;2023-04-25T12:28:22;4.00;;;0.32;;
43098;SDS011;28715;51.988;6.020;2023-04-25T12:30:56;1.50;;;0.15;;
43098;SDS011;28715;51.988;6.020;2023-04-25T12:35:56;0.80;;;0.20;;
43098;SDS011;28715;51.988;6.020;2023-04-25T12:38:26;0.75;;;0.52;;
43098;SDS011;28715;51.988;6.020;2023-04-25T12:40:55;1.63;;;0.50;;
43098;SDS011;28715;51.988;6.020;2023-04-25T12:43:21;5.75;;;0.65;;
43098;SDS011;28715;51.988;6.020;2023-04-25T12:45:50;3.67;;;0.40;;
43098;SDS011;28715;51.988;6.020;2023-04-25T12:48:17;1.50;;;0.38;;
43098;SDS011;28715;51.988;6.020;2023-04-25T12:50:44;1.40;;;0.25;;
43098;SDS011;28715;51.988;6.020;2023-04-25T12:53:10;3.43;;;0.50;;
43098;SDS011;28715;51.988;6.020;2023-04-25T12:55:36;2.90;;;0.63;;
43098;SDS011;28715;51.988;6.020;2023-04-25T12:58:02;3.00;;;0.33;;
43098;SDS011;28715;51.988;6.020;2023-04-25T13:00:28;3.30;;;0.63;;
43098;SDS011;28715;51.988;6.020;2023-04-25T13:02:54;3.00;;;0.70;;
43098;SDS011;28715;51.988;6.020;2023-04-25T13:05:20;4.07;;;0.80;;
43098;SDS011;28715;51.988;6.020;2023-04-25T13:07:45;6.20;;;1.20;;
43098;SDS011;28715;51.988;6.020;2023-04-25T13:10:11;32.07;;;1.50;;
43098;SDS011;28715;51.988;6.020;2023-04-25T13:12:37;120.50;;;101.90;;
43098;SDS011;28715;51.988;6.020;2023-04-25T13:15:02;1999.90;;;999.90;;
43098;SDS011;28715;51.988;6.020;2023-04-25T13:17:28;1035.03;;;520.10;;
43098;SDS011;28715;51.988;6.020;2023-04-25T13:19:53;1999.90;;;999.90;;
43098;SDS011;28715;51.988;6.020;2023-04-25T13:22:20;1999.90;;;999.90;;
43098;SDS011;28715;51.988;6.020;2023-04-25T13:24:45;1999.90;;;999.90;;
43098;SDS011;28715;51.988;6.020;2023-04-25T13:27:11;1999.90;;;999.90;;
43098;SDS011;28715;51.988;6.020;2023-04-25T13:29:38;1999.90;;;999.90;;
43098;SDS011;28715;51.988;6.020;2023-04-25T13:32:05;1999.90;;;999.90;;
43098;SDS011;28715;51.988;6.020;2023-04-25T13:34:31;1999.90;;;999.90;;
43098;SDS011;28715;51.988;6.020;2023-04-25T13:36:56;1999.90;;;999.90;;
43098;SDS011;28715;51.988;6.020;2023-04-25T13:39:22;1999.90;;;999.90;;
43098;SDS011;28715;51.988;6.020;2023-04-25T13:41:47;1999.90;;;999.90;;
43098;SDS011;28715;51.988;6.020;2023-04-25T13:44:13;0.00;;;0.00;;
43098;SDS011;28715;51.988;6.020;2023-04-25T13:46:39;0.43;;;0.30;;
43098;SDS011;28715;51.988;6.020;2023-04-25T13:49:04;0.00;;;0.00;;
43098;SDS011;28715;51.988;6.020;2023-04-25T13:51:30;0.00;;;0.00;;
43098;SDS011;28715;51.988;6.020;2023-04-25T13:53:56;0.00;;;0.00;;
43098;SDS011;28715;51.988;6.020;2023-04-25T13:56:22;0.00;;;0.00;;
43098;SDS011;28715;51.988;6.020;2023-04-25T13:58:48;1.17;;;0.30;;
43098;SDS011;28715;51.988;6.020;2023-04-25T14:01:17;1.15;;;0.25;;
43098;SDS011;28715;51.988;6.020;2023-04-25T14:03:44;0.10;;;0.10;;
43098;SDS011;28715;51.988;6.020;2023-04-25T14:06:10;0.98;;;0.32;;
43098;SDS011;28715;51.988;6.020;2023-04-25T14:08:37;3.45;;;0.20;;
43098;SDS011;28715;51.988;6.020;2023-04-25T14:11:03;11.80;;;0.30;;
43098;SDS011;28715;51.988;6.020;2023-04-25T14:13:28;0.00;;;0.00;;
43098;SDS011;28715;51.988;6.020;2023-04-25T14:15:54;0.00;;;0.00;;
43098;SDS011;28715;51.988;6.020;2023-04-25T14:18:20;0.00;;;0.00;;
43098;SDS011;28715;51.988;6.020;2023-04-25T14:20:45;0.00;;;0.00;;
43098;SDS011;28715;51.988;6.020;2023-04-25T14:23:11;0.00;;;0.00;;
43098;SDS011;28715;51.988;6.020;2023-04-25T14:25:37;0.13;;;0.10;;
43098;SDS011;28715;51.988;6.020;2023-04-25T14:28:02;0.00;;;0.00;;
43098;SDS011;28715;51.988;6.020;2023-04-25T14:30:28;0.00;;;0.00;;
43098;SDS011;28715;51.988;6.020;2023-04-25T14:32:54;0.20;;;0.10;;
43098;SDS011;28715;51.988;6.020;2023-04-25T14:35:20;0.00;;;0.00;;
43098;SDS011;28715;51.988;6.020;2023-04-25T14:37:46;0.82;;;0.10;;
43098;SDS011;28715;51.988;6.020;2023-04-25T14:40:11;0.10;;;0.10;;
43098;SDS011;28715;51.988;6.020;2023-04-25T14:42:40;0.20;;;0.20;;
43098;SDS011;28715;51.988;6.020;2023-04-25T14:45:05;0.00;;;0.00;;
43098;SDS011;28715;51.988;6.020;2023-04-25T14:47:32;0.75;;;0.20;;
43098;SDS011;28715;51.988;6.020;2023-04-25T14:49:58;0.00;;;0.00;;